Time;durP1;ratioP1;P1;durP2;ratioP2;P2;SDS_P1;SDS_P2;PMS_P1;PMS_P2;Temp;Humidity;BMP_temperature;BMP_pressure;BME280_temperature;BME280_humidity;BME280_pressure;Samples;Min_cycle;Max_cycle;Signal;HPM_P1;HPM_P2
2023/05/06 00:01:28;;;;;;;3.43;1.37;;;14.10;1.00;;;;;;5098096;28;20530;-73
2023/05/06 00:03:53;;;;;;;4.47;1.30;;;14.10;1.00;;;;;;5117190;28;20223;-78
2023/05/06 00:06:36;;;;;;;1.73;1.37;;;14.10;1.00;;;;;;5116178;28;20427;-78
2023/05/06 00:12:23;;;;;;;3.13;1.40;;;14.10;1.00;;;;;;5115938;28;20381;-78
2023/05/06 00:15:11;;;;;;;1.97;1.47;;;14.10;1.00;;;;;;5115680;27;20899;-79
2023/05/06 00:18:23;;;;;;;14.43;1.50;;;14.10;1.00;;;;;;5107967;27;20280;-78
2023/05/06 00:21:11;;;;;;;2.97;1.70;;;14.10;1.00;;;;;;5136688;27;20456;-78
2023/05/06 00:23:41;;;;;;;3.73;1.57;;;14.10;1.00;;;;;;5136448;27;20447;-78
2023/05/06 00:26:17;;;;;;;2.97;1.40;;;14.10;1.00;;;;;;5135295;27;20489;-78
2023/05/06 00:29:23;;;;;;;2.20;1.87;;;14.10;1.00;;;;;;5122660;27;20427;-78
2023/05/06 00:32:29;;;;;;;3.40;1.43;;;14.10;1.00;;;;;;5115735;28;20463;-78
2023/05/06 00:35:06;;;;;;;2.40;1.80;;;14.00;1.00;;;;;;5115829;28;20726;-79
2023/05/06 00:37:44;;;;;;;2.50;1.53;;;14.00;1.00;;;;;;5124617;27;20454;-78
2023/05/06 00:40:13;;;;;;;4.27;1.60;;;13.90;1.00;;;;;;5097287;28;20418;-78
2023/05/06 00:42:59;;;;;;;5.60;1.37;;;13.80;1.00;;;;;;5115471;28;20396;-78
2023/05/06 00:45:36;;;;;;;1.70;1.60;;;13.80;1.00;;;;;;5120611;27;20410;-78
2023/05/06 00:48:12;;;;;;;1.83;1.63;;;13.70;1.00;;;;;;5117914;27;20841;-78
2023/05/06 00:50:39;;;;;;;4.63;1.57;;;13.70;1.00;;;;;;5135844;27;20440;-78
2023/05/06 00:53:08;;;;;;;1.80;1.60;;;13.60;1.00;;;;;;5124416;27;20422;-78
2023/05/06 00:55:48;;;;;;;3.93;2.47;;;13.50;1.00;;;;;;5115189;28;20427;-78
2023/05/06 00:58:59;;;;;;;2.83;1.60;;;13.50;1.00;;;;;;5096820;28;20953;-78
2023/05/06 01:01:25;;;;;;;7.03;2.00;;;13.40;1.00;;;;;;5115210;28;20395;-78
2023/05/06 01:04:41;;;;;;;1.70;1.60;;;13.30;1.00;;;;;;5115381;28;20374;-79
2023/05/06 01:07:35;;;;;;;4.13;2.30;;;13.20;1.00;;;;;;5114970;28;20492;-78
2023/05/06 01:10:20;;;;;;;5.43;1.93;;;13.10;1.00;;;;;;5096738;28;20418;-78
2023/05/06 01:13:13;;;;;;;2.57;1.70;;;13.00;1.00;;;;;;5114798;28;20711;-78
2023/05/06 01:16:17;;;;;;;6.40;1.80;;;12.90;1.00;;;;;;5126425;27;20819;-78
2023/05/06 01:18:44;;;;;;;1.67;1.57;;;12.70;1.00;;;;;;5115394;28;20750;-73
2023/05/06 01:21:11;;;;;;;3.13;2.00;;;12.70;1.00;;;;;;5114919;28;20737;-73
2023/05/06 01:23:56;;;;;;;7.37;1.70;;;12.70;1.00;;;;;;5115320;27;20892;-73
2023/05/06 01:26:23;;;;;;;6.70;1.70;;;12.50;1.00;;;;;;5121390;27;20451;-73
2023/05/06 01:28:49;;;;;;;3.17;1.97;;;12.40;1.00;;;;;;5114582;27;20399;-73
2023/05/06 01:31:44;;;;;;;2.30;1.63;;;12.40;1.00;;;;;;5096415;28;20404;-73
2023/05/06 01:35:07;;;;;;;3.40;1.90;;;12.30;1.00;;;;;;5096327;28;20424;-78
2023/05/06 01:41:47;;;;;;;6.43;2.10;;;12.20;1.00;;;;;;5049839;28;20745;-78
2023/05/06 01:47:35;;;;;;;5.60;2.23;;;11.90;1.00;;;;;;5031735;28;20412;-78
2023/05/06 01:50:02;;;;;;;3.53;1.93;;;11.90;1.00;;;;;;5039868;28;20951;-74
2023/05/06 01:52:27;;;;;;;5.73;2.70;;;11.90;1.00;;;;;;5033112;28;20512;-73
2023/05/06 01:54:53;;;;;;;2.20;2.00;;;11.80;1.00;;;;;;5048547;28;20400;-73
2023/05/06 01:57:29;;;;;;;2.10;2.00;;;11.70;1.00;;;;;;5049994;28;20207;-74
2023/05/06 01:59:55;;;;;;;3.90;1.93;;;11.60;1.00;;;;;;5047001;28;20678;-74
2023/05/06 02:02:21;;;;;;;5.57;1.83;;;11.60;1.00;;;;;;5051503;28;20381;-73
2023/05/06 02:04:46;;;;;;;20.83;3.00;;;11.40;1.00;;;;;;5051902;28;20209;-73
2023/05/06 02:07:12;;;;;;;7.43;2.43;;;11.60;1.00;;;;;;5053680;28;20665;-74
2023/05/06 02:09:48;;;;;;;6.27;2.70;;;11.50;1.00;;;;;;5123200;28;20192;-74
2023/05/06 02:12:17;;;;;;;5.10;2.40;;;11.50;1.00;;;;;;5122590;28;20175;-73
2023/05/06 02:14:43;;;;;;;9.40;2.23;;;11.40;1.00;;;;;;5134726;28;20921;-73
2023/05/06 02:17:09;;;;;;;5.30;2.20;;;11.50;1.00;;;;;;5134693;28;20516;-73
2023/05/06 02:26:17;;;;;;;6.73;2.13;;;11.30;1.00;;;;;;5130939;28;20768;-78
2023/05/06 02:29:17;;;;;;;2.00;1.90;;;11.30;1.00;;;;;;5117898;28;20426;-78
2023/05/06 02:32:05;;;;;;;4.43;2.30;;;11.10;1.00;;;;;;5114199;28;20412;-78
2023/05/06 02:34:41;;;;;;;2.20;2.00;;;11.10;1.00;;;;;;5114479;28;20399;-78
2023/05/06 02:37:11;;;;;;;6.53;2.17;;;11.10;1.00;;;;;;5119965;27;20415;-78
2023/05/06 02:39:41;;;;;;;4.17;1.97;;;11.10;1.00;;;;;;5120776;27;20392;-78
2023/05/06 02:42:15;;;;;;;2.83;2.20;;;11.00;1.00;;;;;;5115016;28;20773;-79
2023/05/06 02:45:11;;;;;;;2.70;1.83;;;11.00;1.00;;;;;;5117891;28;20369;-78
2023/05/06 02:47:37;;;;;;;3.93;2.10;;;11.00;1.00;;;;;;5118018;28;20448;-78
2023/05/06 02:50:03;;;;;;;4.83;1.80;;;10.90;1.00;;;;;;5119756;27;20422;-74
2023/05/06 02:52:29;;;;;;;3.80;2.60;;;10.90;1.00;;;;;;5137567;27;20200;-74
2023/05/06 02:55:06;;;;;;;4.60;2.67;;;10.90;1.00;;;;;;5138267;27;20168;-73
2023/05/06 02:57:32;;;;;;;4.10;2.63;;;10.90;1.00;;;;;;5127882;27;20197;-74
2023/05/06 02:59:57;;;;;;;6.57;2.20;;;11.00;1.00;;;;;;5117619;28;20380;-73
2023/05/06 03:02:23;;;;;;;7.93;2.00;;;10.90;1.00;;;;;;5134707;27;20475;-73
2023/05/06 03:04:49;;;;;;;3.40;2.33;;;10.80;1.00;;;;;;5137437;27;20549;-73
2023/05/06 03:07:17;;;;;;;4.90;2.40;;;11.00;1.00;;;;;;5138116;27;20161;-73
2023/05/06 03:09:43;;;;;;;3.93;1.97;;;10.90;1.00;;;;;;5138066;27;20398;-73
2023/05/06 03:12:10;;;;;;;3.73;2.50;;;10.80;1.00;;;;;;5132498;27;20777;-74
2023/05/06 03:14:36;;;;;;;5.70;2.33;;;10.80;1.00;;;;;;5138050;27;20149;-73
2023/05/06 03:17:02;;;;;;;1.93;1.73;;;11.00;1.00;;;;;;5137881;27;20788;-74
2023/05/06 03:22:49;;;;;;;5.43;2.10;;;10.70;1.00;;;;;;5117053;28;20417;-86
2023/05/06 03:25:23;;;;;;;3.10;2.00;;;10.60;1.00;;;;;;5117602;28;20426;-86
2023/05/06 03:31:11;;;;;;;6.20;2.00;;;10.50;1.00;;;;;;5117562;28;20379;-86
2023/05/06 03:36:59;;;;;;;2.07;1.97;;;10.40;1.00;;;;;;5117252;28;20443;-86
2023/05/06 03:42:46;;;;;;;8.17;3.10;;;10.40;1.00;;;;;;5116991;28;20161;-86
2023/05/06 03:45:30;;;;;;;5.43;2.60;;;10.30;1.00;;;;;;5099111;28;20412;-86
2023/05/06 03:51:17;;;;;;;3.63;2.30;;;10.30;1.00;;;;;;5117049;28;21063;-85
2023/05/06 03:57:59;;;;;;;5.30;2.63;;;10.20;1.00;;;;;;5117030;27;20646;-85
2023/05/06 04:00:42;;;;;;;14.83;3.93;;;10.20;1.00;;;;;;5098839;28;20437;-85
2023/05/06 04:03:29;;;;;;;8.80;3.70;;;10.20;1.00;;;;;;5098752;28;20855;-84
2023/05/06 04:13:18;;;;;;;3.40;2.30;;;10.20;1.00;;;;;;5137157;27;20396;-86
2023/05/06 04:19:05;;;;;;;2.90;2.27;;;10.20;1.00;;;;;;5116546;28;20452;-86
2023/05/06 04:21:31;;;;;;;2.70;2.50;;;10.20;1.00;;;;;;5098420;28;20417;-85
2023/05/06 04:24:06;;;;;;;3.30;2.60;;;10.20;1.00;;;;;;5116531;28;20602;-85
2023/05/06 04:30:35;;;;;;;3.00;2.70;;;10.10;1.00;;;;;;5127246;27;20418;-85
2023/05/06 04:36:36;;;;;;;3.47;3.17;;;10.20;1.00;;;;;;5127060;27;20404;-86
2023/05/06 04:45:48;;;;;;;3.53;3.23;;;10.10;1.30;;;;;;5132503;27;20417;-86
2023/05/06 04:49:05;;;;;;;2.90;2.70;;;10.20;2.30;;;;;;5118108;27;20882;-86
2023/05/06 04:54:53;;;;;;;5.33;3.57;;;10.30;2.60;;;;;;5115988;28;20863;-86
2023/05/06 04:57:36;;;;;;;9.57;3.07;;;10.40;4.90;;;;;;5097270;28;20421;-86
2023/05/06 05:03:24;;;;;;;3.20;2.97;;;10.50;6.50;;;;;;5121850;27;20986;-86
2023/05/06 05:06:06;;;;;;;10.70;3.70;;;10.60;7.20;;;;;;5115895;27;20419;-85
2023/05/06 05:15:15;;;;;;;5.07;3.30;;;10.90;8.70;;;;;;5115243;28;20383;-84
2023/05/06 05:17:49;;;;;;;3.73;3.30;;;11.00;7.70;;;;;;5102957;28;20429;-84
2023/05/06 05:20:35;;;;;;;8.30;3.43;;;11.10;7.10;;;;;;5097279;28;20243;-85
2023/05/06 05:26:23;;;;;;;5.13;2.97;;;11.30;4.80;;;;;;5115230;28;20366;-84
2023/05/06 05:32:10;;;;;;;6.83;3.87;;;11.60;7.50;;;;;;5114657;28;20193;-85
2023/05/06 05:41:41;;;;;;;9.90;4.73;;;11.90;12.60;;;;;;5114934;28;20387;-85
2023/05/06 05:44:53;;;;;;;11.30;3.90;;;12.10;13.80;;;;;;5105967;28;20431;-84
2023/05/06 05:47:30;;;;;;;9.23;4.90;;;12.20;12.90;;;;;;5096741;28;20427;-85
2023/05/06 05:49:55;;;;;;;6.00;4.60;;;12.30;13.50;;;;;;5114594;28;20828;-85
2023/05/06 05:52:21;;;;;;;7.10;4.67;;;12.50;11.30;;;;;;5097055;28;20385;-85
2023/05/06 05:55:00;;;;;;;5.40;4.20;;;12.60;10.50;;;;;;5096361;28;20272;-85
2023/05/06 05:57:59;;;;;;;8.63;4.90;;;12.80;5.20;;;;;;5096719;28;20193;-85
2023/05/06 06:00:30;;;;;;;8.17;4.73;;;12.90;1.00;;;;;;5096354;28;20450;-84
2023/05/06 06:06:17;;;;;;;4.80;3.73;;;13.30;1.00;;;;;;5114861;28;20448;-86
2023/05/06 06:09:23;;;;;;;6.20;3.40;;;13.30;1.00;;;;;;5096606;28;20419;-86
2023/05/06 06:15:11;;;;;;;5.33;3.40;;;13.70;1.00;;;;;;5114524;28;20394;-86
2023/05/06 06:17:48;;;;;;;7.30;3.27;;;13.90;1.00;;;;;;5096332;28;20821;-86
2023/05/06 06:23:35;;;;;;;3.07;2.87;;;14.10;1.00;;;;;;5116713;28;20441;-86
2023/05/06 06:26:04;;;;;;;3.87;2.83;;;14.30;1.00;;;;;;5116057;28;20373;-86
2023/05/06 06:31:51;;;;;;;8.83;2.73;;;14.50;1.00;;;;;;5116411;28;20896;-87
2023/05/06 06:37:39;;;;;;;3.67;2.53;;;14.70;1.00;;;;;;5135327;28;20296;-86
2023/05/06 06:40:53;;;;;;;4.20;2.40;;;14.80;1.00;;;;;;5112893;28;20938;-86
2023/05/06 06:43:47;;;;;;;4.50;2.33;;;15.00;1.00;;;;;;5103512;28;20176;-85
2023/05/06 06:46:59;;;;;;;8.73;2.43;;;15.20;1.00;;;;;;5096310;28;20363;-86
2023/05/06 06:49:33;;;;;;;2.70;2.20;;;15.40;1.00;;;;;;5096192;28;20427;-86
2023/05/06 06:51:58;;;;;;;5.40;1.90;;;15.60;1.00;;;;;;5096447;28;20539;-86
2023/05/06 06:58:29;;;;;;;2.87;2.20;;;15.80;1.00;;;;;;5113671;28;20344;-85
2023/05/06 07:01:29;;;;;;;3.43;2.23;;;16.00;1.00;;;;;;5096152;28;20412;-86
2023/05/06 07:04:18;;;;;;;5.27;1.90;;;16.20;1.00;;;;;;5104736;28;20503;-86
2023/05/06 07:06:55;;;;;;;2.20;2.00;;;16.40;1.00;;;;;;5096476;28;20412;-85
2023/05/06 07:09:30;;;;;;;16.20;2.27;;;16.60;1.00;;;;;;5096084;28;20843;-86
2023/05/06 07:12:00;;;;;;;3.17;2.00;;;16.70;1.00;;;;;;5097578;28;20969;-86
2023/05/06 07:14:30;;;;;;;2.50;1.97;;;16.90;1.00;;;;;;5116440;28;20477;-86
2023/05/06 07:17:29;;;;;;;1.90;1.80;;;16.90;1.00;;;;;;5129316;28;20514;-86
2023/05/06 07:20:29;;;;;;;2.43;2.23;;;17.10;1.00;;;;;;5096136;28;20395;-86
2023/05/06 07:23:00;;;;;;;2.20;1.83;;;17.30;1.00;;;;;;5096709;28;20418;-85
2023/05/06 07:25:30;;;;;;;2.80;1.77;;;17.50;1.00;;;;;;5099505;28;20889;-86
2023/05/06 07:28:06;;;;;;;1.90;1.50;;;17.60;1.00;;;;;;5099247;28;20425;-85
2023/05/06 07:34:30;;;;;;;1.60;1.50;;;17.90;1.00;;;;;;5117068;28;20389;-86
2023/05/06 07:37:29;;;;;;;2.60;1.70;;;18.00;1.00;;;;;;5099385;28;20402;-85
2023/05/06 07:40:00;;;;;;;6.03;2.23;;;18.20;1.00;;;;;;5118624;27;21021;-86
2023/05/06 07:42:30;;;;;;;3.70;1.70;;;18.20;1.00;;;;;;5114115;28;20907;-82
2023/05/06 07:48:18;;;;;;;2.07;1.40;;;18.30;1.00;;;;;;5117121;28;20370;-85
2023/05/06 07:50:43;;;;;;;2.70;1.40;;;18.40;1.00;;;;;;5105273;27;20417;-85
2023/05/06 07:53:42;;;;;;;1.47;1.37;;;18.30;1.00;;;;;;5119707;27;20179;-87
2023/05/06 07:56:30;;;;;;;1.40;1.30;;;18.30;1.00;;;;;;5137832;27;20156;-87
2023/05/06 07:59:48;;;;;;;2.47;1.37;;;18.50;1.00;;;;;;5132582;27;20459;-87
2023/05/06 08:05:35;;;;;;;1.20;1.00;;;18.30;1.00;;;;;;5126646;27;20422;-87
2023/05/06 08:18:06;;;;;;;29.23;2.50;;;19.00;1.00;;;;;;5116844;28;20545;-87
2023/05/06 08:21:12;;;;;;;1.30;1.20;;;18.90;1.00;;;;;;5098581;28;20432;-87
2023/05/06 08:27:55;;;;;;;4.87;1.27;;;19.00;1.00;;;;;;5116355;28;20457;-86
2023/05/06 08:34:42;;;;;;;2.30;1.33;;;19.10;1.00;;;;;;5115778;28;20394;-86
2023/05/06 08:37:07;;;;;;;2.23;1.03;;;19.00;1.00;;;;;;5116549;28;20392;-85
2023/05/06 08:40:00;;;;;;;1.53;1.07;;;19.00;1.00;;;;;;5097905;28;20470;-85
2023/05/06 08:45:48;;;;;;;1.63;0.90;;;19.10;1.00;;;;;;5115964;28;20391;-85
2023/05/06 08:51:36;;;;;;;1.77;0.90;;;19.40;1.00;;;;;;5115283;28;20489;-83
2023/05/06 08:57:31;;;;;;;1.53;1.10;;;19.40;1.00;;;;;;5115102;28;20473;-87
2023/05/06 09:03:24;;;;;;;3.30;1.10;;;19.40;1.00;;;;;;5116073;28;20418;-88
2023/05/06 09:05:50;;;;;;;10.03;1.50;;;19.50;1.00;;;;;;5115871;28;20488;-88
2023/05/06 09:09:00;;;;;;;5.90;0.97;;;19.60;1.00;;;;;;5115897;27;20464;-89
2023/05/06 09:12:00;;;;;;;151.77;7.93;;;19.70;1.00;;;;;;5116537;27;20634;-88
2023/05/06 09:21:09;;;;;;;4.17;0.93;;;19.80;1.00;;;;;;5136023;27;20854;-89
2023/05/06 09:26:57;;;;;;;2.53;1.00;;;20.10;1.00;;;;;;5116261;27;20185;-90
2023/05/06 09:29:23;;;;;;;2.07;1.37;;;20.20;1.00;;;;;;5097097;28;20418;-90
2023/05/06 09:35:11;;;;;;;1.07;1.00;;;20.50;1.00;;;;;;5131377;27;20190;-89
2023/05/06 09:40:58;;;;;;;1.70;0.83;;;21.00;1.00;;;;;;5115026;28;20696;-89
2023/05/06 09:43:49;;;;;;;3.00;1.10;;;21.40;1.00;;;;;;5115969;27;20399;-89
2023/05/06 09:49:38;;;;;;;8.50;2.37;;;21.70;1.00;;;;;;5114481;28;20538;-89
2023/05/06 09:52:13;;;;;;;1.53;1.23;;;22.10;1.00;;;;;;5114989;28;20899;-89
2023/05/06 09:58:01;;;;;;;2.83;1.10;;;22.00;1.00;;;;;;5113549;27;20829;-80
2023/05/06 10:00:29;;;;;;;2.50;0.90;;;22.20;1.00;;;;;;5100905;28;20493;-80
2023/05/06 10:03:24;;;;;;;1.73;1.00;;;22.10;1.00;;;;;;5122109;28;20467;-81
2023/05/06 10:06:19;;;;;;;0.70;0.70;;;22.00;1.00;;;;;;5114132;28;20424;-80
2023/05/06 10:08:46;;;;;;;2.90;0.90;;;22.00;1.00;;;;;;5114133;28;20442;-73
2023/05/06 10:11:14;;;;;;;1.43;0.80;;;22.20;1.00;;;;;;5107033;28;20812;-74
2023/05/06 10:13:40;;;;;;;2.60;0.80;;;22.40;1.00;;;;;;5134770;28;20376;-74
2023/05/06 10:16:08;;;;;;;0.80;0.80;;;22.50;1.00;;;;;;5128023;28;20443;-74
2023/05/06 10:18:35;;;;;;;1.13;0.80;;;22.80;1.00;;;;;;5114035;28;20805;-74
2023/05/06 10:21:05;;;;;;;1.77;0.60;;;22.90;1.00;;;;;;5113728;28;20452;-74
2023/05/06 10:24:12;;;;;;;0.97;0.87;;;22.90;1.00;;;;;;5114374;28;20426;-80
2023/05/06 10:26:45;;;;;;;0.80;0.80;;;22.80;1.00;;;;;;5113914;28;20413;-80
2023/05/06 10:29:25;;;;;;;0.80;0.80;;;22.60;1.00;;;;;;5114374;28;20421;-82
2023/05/06 10:32:25;;;;;;;0.87;0.87;;;22.50;1.00;;;;;;5113483;28;20420;-82
2023/05/06 10:38:41;;;;;;;2.30;0.70;;;22.30;1.00;;;;;;5124030;28;20455;-81
2023/05/06 10:41:13;;;;;;;3.50;0.97;;;22.30;1.00;;;;;;5122370;28;20419;-81
2023/05/06 10:43:44;;;;;;;1.57;1.07;;;22.40;1.00;;;;;;5125698;28;20419;-82
2023/05/06 10:46:54;;;;;;;0.80;0.80;;;22.50;1.00;;;;;;5113750;28;20397;-82
2023/05/06 10:49:25;;;;;;;2.03;0.90;;;22.60;1.00;;;;;;5129329;28;20429;-80
2023/05/06 10:52:10;;;;;;;1.10;1.00;;;22.70;1.00;;;;;;5134266;28;20427;-79
2023/05/06 10:54:50;;;;;;;1.67;0.80;;;22.80;1.00;;;;;;5115268;28;20799;-80
2023/05/06 10:57:40;;;;;;;1.57;1.17;;;22.90;1.00;;;;;;5134717;27;20436;-78
2023/05/06 11:00:09;;;;;;;3.07;1.00;;;23.00;1.00;;;;;;5121592;27;20772;-79
2023/05/06 11:02:36;;;;;;;0.83;0.70;;;23.10;1.00;;;;;;5117412;27;20482;-79
2023/05/06 11:05:24;;;;;;;3.67;0.80;;;23.20;1.00;;;;;;5099183;28;20423;-78
2023/05/06 11:07:51;;;;;;;1.03;0.90;;;23.10;1.00;;;;;;5117379;28;20520;-80
2023/05/06 11:10:38;;;;;;;0.70;0.70;;;23.30;1.00;;;;;;5132054;27;20425;-78
2023/05/06 11:13:48;;;;;;;1.20;0.80;;;23.40;1.00;;;;;;5116996;28;20396;-79
2023/05/06 11:16:49;;;;;;;1.20;0.90;;;23.70;1.00;;;;;;5117653;28;20401;-78
2023/05/06 11:19:35;;;;;;;1.30;1.10;;;24.30;1.00;;;;;;5050905;28;20479;-78
2023/05/06 11:22:54;;;;;;;5.50;0.80;;;24.60;1.00;;;;;;5057628;28;20446;-78
2023/05/06 11:25:49;;;;;;;1.77;0.90;;;24.70;1.00;;;;;;5060858;28;20432;-74
2023/05/06 11:28:15;;;;;;;0.90;0.90;;;25.00;1.00;;;;;;5013223;28;20519;-73
2023/05/06 11:30:42;;;;;;;1.27;0.87;;;25.20;1.00;;;;;;5013401;28;20449;-73
2023/05/06 11:33:20;;;;;;;1.30;1.00;;;25.10;1.00;;;;;;5013998;28;20421;-73
2023/05/06 11:35:47;;;;;;;2.87;1.00;;;25.10;1.00;;;;;;5014103;28;20423;-74
2023/05/06 11:38:12;;;;;;;1.00;0.90;;;25.00;1.00;;;;;;5013100;28;20473;-74
2023/05/06 11:40:40;;;;;;;1.73;0.90;;;24.90;1.00;;;;;;5014095;28;20437;-74
2023/05/06 11:43:15;;;;;;;1.37;0.73;;;24.70;1.00;;;;;;5013817;28;20195;-74
2023/05/06 11:45:46;;;;;;;2.13;1.03;;;24.50;1.00;;;;;;5014195;28;20418;-74
2023/05/06 11:48:16;;;;;;;1.87;0.70;;;24.50;1.00;;;;;;5012741;28;20436;-74
2023/05/06 11:50:48;;;;;;;1.47;0.90;;;24.40;1.00;;;;;;4996821;28;20455;-74
2023/05/06 11:53:21;;;;;;;3.83;0.90;;;24.40;1.00;;;;;;5013504;28;20425;-73
2023/05/06 11:55:48;;;;;;;1.10;0.90;;;24.30;1.00;;;;;;5061812;28;20812;-78
2023/05/06 11:58:29;;;;;;;3.57;0.90;;;24.20;1.00;;;;;;5094488;28;20453;-78
2023/05/06 12:01:12;;;;;;;0.83;0.80;;;24.10;1.00;;;;;;5093843;28;20421;-77
2023/05/06 12:03:48;;;;;;;0.90;0.70;;;24.00;1.00;;;;;;5083401;28;20443;-78
2023/05/06 12:06:45;;;;;;;0.90;0.67;;;24.00;1.00;;;;;;5116673;28;20433;-77
2023/05/06 12:09:11;;;;;;;7.40;0.60;;;23.90;1.00;;;;;;5038964;28;20427;-74
2023/05/06 12:11:39;;;;;;;35.03;1.83;;;23.80;1.00;;;;;;5051604;28;20431;-74
2023/05/06 12:14:07;;;;;;;0.80;0.80;;;23.70;1.00;;;;;;5053387;28;20417;-74
2023/05/06 12:16:37;;;;;;;1.33;0.77;;;23.60;1.00;;;;;;5052813;28;20435;-74
2023/05/06 12:19:04;;;;;;;2.13;0.90;;;23.60;1.00;;;;;;5050268;28;20530;-74
2023/05/06 12:21:31;;;;;;;0.87;0.80;;;23.60;1.00;;;;;;5033411;28;20391;-73
2023/05/06 12:23:59;;;;;;;1.00;0.90;;;23.60;1.00;;;;;;5033357;28;20395;-74
2023/05/06 12:26:26;;;;;;;1.70;0.80;;;23.70;1.00;;;;;;5039479;28;20840;-74
2023/05/06 12:29:09;;;;;;;1.23;0.80;;;23.80;1.00;;;;;;5052301;28;20450;-74
2023/05/06 12:31:35;;;;;;;0.80;0.80;;;23.90;1.00;;;;;;5036620;28;20430;-74
2023/05/06 12:34:02;;;;;;;1.80;0.77;;;24.00;1.00;;;;;;5031743;28;20838;-74
2023/05/06 12:36:29;;;;;;;0.60;0.60;;;24.10;1.00;;;;;;5052390;28;20442;-74
2023/05/06 12:38:56;;;;;;;1.53;0.80;;;24.20;1.00;;;;;;5052242;28;20467;-74
2023/05/06 12:41:43;;;;;;;1.10;1.00;;;24.20;1.00;;;;;;5052744;28;20502;-78
2023/05/06 12:44:42;;;;;;;2.40;0.90;;;24.30;1.00;;;;;;5053300;28;20437;-78
2023/05/06 12:47:27;;;;;;;2.90;0.80;;;24.60;1.00;;;;;;5097740;28;20745;-78
2023/05/06 12:49:57;;;;;;;5.13;0.90;;;24.90;1.00;;;;;;5116578;27;20566;-78
2023/05/06 12:52:25;;;;;;;4.20;0.87;;;25.10;1.00;;;;;;5115423;28;20406;-78
2023/05/06 12:54:54;;;;;;;1.20;0.70;;;25.20;1.00;;;;;;5116028;28;20493;-74
2023/05/06 12:57:20;;;;;;;3.43;0.83;;;25.20;1.00;;;;;;5115316;28;20791;-73
2023/05/06 12:59:46;;;;;;;5.33;0.70;;;25.30;1.00;;;;;;5100464;27;20509;-74
2023/05/06 13:02:12;;;;;;;1.20;0.67;;;25.30;1.00;;;;;;5135869;27;20259;-74
2023/05/06 13:04:38;;;;;;;1.63;0.90;;;25.20;1.00;;;;;;5133835;27;20513;-74
2023/05/06 13:07:05;;;;;;;9.43;0.90;;;25.20;1.00;;;;;;5119890;27;20514;-74
2023/05/06 13:09:30;;;;;;;8.80;0.90;;;25.30;1.00;;;;;;5114893;27;20594;-73
2023/05/06 13:11:57;;;;;;;1.27;0.80;;;25.30;1.00;;;;;;5116827;27;20491;-75
2023/05/06 13:14:23;;;;;;;5.20;0.80;;;25.30;1.00;;;;;;5115465;27;20191;-75
2023/05/06 13:16:49;;;;;;;1.93;0.90;;;25.60;1.00;;;;;;5114969;28;20388;-75
2023/05/06 13:19:15;;;;;;;2.63;0.70;;;25.80;1.00;;;;;;5135388;27;20927;-75
2023/05/06 13:21:41;;;;;;;1.23;0.80;;;26.00;1.00;;;;;;5133041;27;20421;-75
2023/05/06 13:24:18;;;;;;;0.70;0.70;;;26.20;1.00;;;;;;5114832;27;20922;-75
2023/05/06 13:26:59;;;;;;;0.80;0.67;;;26.40;1.00;;;;;;5099259;27;21025;-75
2023/05/06 13:29:25;;;;;;;1.00;0.90;;;26.50;1.00;;;;;;5118097;27;20813;-76
2023/05/06 13:31:55;;;;;;;0.70;0.70;;;26.40;1.00;;;;;;5135212;27;20812;-74
2023/05/06 13:34:21;;;;;;;0.70;0.70;;;26.50;1.00;;;;;;5135163;27;20390;-76
2023/05/06 13:36:48;;;;;;;1.03;0.70;;;26.50;1.00;;;;;;5112766;27;20435;-75
2023/05/06 13:39:17;;;;;;;2.00;0.80;;;26.40;1.00;;;;;;5114485;27;20282;-75
2023/05/06 13:41:46;;;;;;;3.03;0.70;;;26.30;1.00;;;;;;5114633;28;20398;-75
2023/05/06 13:44:12;;;;;;;1.83;0.70;;;26.10;1.00;;;;;;5122982;27;20422;-75
2023/05/06 13:46:48;;;;;;;1.00;0.80;;;26.20;1.00;;;;;;5120731;27;20427;-75
2023/05/06 13:49:14;;;;;;;0.80;0.70;;;26.20;1.00;;;;;;5123194;27;20466;-75
2023/05/06 13:51:40;;;;;;;1.83;0.90;;;26.30;1.00;;;;;;5106433;28;20482;-75
2023/05/06 13:54:06;;;;;;;4.50;1.00;;;26.30;1.00;;;;;;5114298;27;20616;-76
2023/05/06 13:57:00;;;;;;;0.60;0.60;;;26.20;1.00;;;;;;5114266;28;20176;-84
2023/05/06 13:59:54;;;;;;;1.30;0.67;;;26.10;1.00;;;;;;5110959;27;20206;-84
2023/05/06 14:05:42;;;;;;;1.77;0.80;;;26.40;1.00;;;;;;5135440;27;20392;-88
2023/05/06 14:11:30;;;;;;;1.37;0.70;;;26.50;1.00;;;;;;5121907;28;20180;-85
2023/05/06 14:17:18;;;;;;;0.90;0.70;;;26.40;1.00;;;;;;5127980;28;20561;-82
2023/05/06 14:23:05;;;;;;;2.10;0.70;;;26.00;1.00;;;;;;5133924;28;20150;-86
2023/05/06 14:26:06;;;;;;;4.00;0.80;;;26.00;1.00;;;;;;5096330;28;20421;-85
2023/05/06 14:28:36;;;;;;;4.33;0.80;;;25.80;1.00;;;;;;5115612;28;20687;-85
2023/05/06 14:34:25;;;;;;;1.53;0.80;;;25.50;1.00;;;;;;5118913;28;20370;-85
2023/05/06 14:40:49;;;;;;;18.47;1.33;;;25.20;1.00;;;;;;5129768;27;20487;-86
2023/05/06 14:43:30;;;;;;;11.67;0.90;;;25.10;1.00;;;;;;5121239;27;20415;-85
2023/05/06 14:46:48;;;;;;;6.70;1.10;;;25.10;1.00;;;;;;5111176;28;20967;-88
2023/05/06 14:49:33;;;;;;;7.90;1.23;;;25.10;1.00;;;;;;5112255;27;20427;-86
2023/05/06 14:51:58;;;;;;;7.20;1.07;;;25.00;1.00;;;;;;5100241;28;20426;-88
2023/05/06 14:54:43;;;;;;;1.77;0.80;;;25.00;1.00;;;;;;5118107;27;20499;-88
2023/05/06 15:07:36;;;;;;;1.57;1.00;;;24.20;1.00;;;;;;5117962;27;20426;-81
2023/05/06 15:10:24;;;;;;;1.07;0.90;;;23.80;1.00;;;;;;5117333;28;20416;-83
2023/05/06 15:13:36;;;;;;;3.27;0.90;;;23.60;1.00;;;;;;5136952;27;20442;-85
2023/05/06 15:19:42;;;;;;;2.60;1.70;;;23.00;1.00;;;;;;5132359;27;20504;-84
2023/05/06 15:25:29;;;;;;;4.63;1.20;;;22.70;1.00;;;;;;5117610;27;20409;-84
2023/05/06 15:28:18;;;;;;;1.30;1.10;;;22.70;1.00;;;;;;5099685;28;20418;-87
2023/05/06 15:31:00;;;;;;;1.60;0.83;;;22.60;1.00;;;;;;5117559;28;20185;-87
2023/05/06 15:40:13;;;;;;;1.33;0.90;;;22.50;1.00;;;;;;5117332;28;20460;-88
2023/05/06 15:42:43;;;;;;;1.00;1.00;;;22.50;1.00;;;;;;5099728;28;20405;-84
2023/05/06 15:45:30;;;;;;;3.23;1.03;;;22.50;1.00;;;;;;5111553;28;20456;-82
2023/05/06 15:55:12;;;;;;;6.03;0.87;;;22.70;1.00;;;;;;5116758;28;20410;-84
2023/05/06 15:58:18;;;;;;;1.20;0.70;;;22.80;1.00;;;;;;5115504;28;20425;-81
2023/05/06 16:01:00;;;;;;;1.67;1.27;;;22.80;1.00;;;;;;5098123;28;20430;-79
2023/05/06 16:03:30;;;;;;;2.83;0.90;;;22.80;1.00;;;;;;5135575;27;20437;-80
2023/05/06 16:06:07;;;;;;;2.57;1.20;;;22.80;1.00;;;;;;5136708;27;20418;-80
2023/05/06 16:08:42;;;;;;;1.77;1.10;;;22.80;1.00;;;;;;5118878;27;20902;-80
2023/05/06 16:11:30;;;;;;;0.80;0.80;;;22.80;1.00;;;;;;5116096;28;20920;-81
2023/05/06 16:14:12;;;;;;;1.30;0.90;;;22.80;1.00;;;;;;5116979;27;20397;-82
2023/05/06 16:17:00;;;;;;;2.73;1.40;;;22.70;1.00;;;;;;5116345;28;20452;-82
2023/05/06 16:20:00;;;;;;;1.83;0.93;;;22.60;1.00;;;;;;5104869;28;20510;-82
2023/05/06 16:23:12;;;;;;;3.47;1.20;;;22.60;1.00;;;;;;5098074;28;20411;-83
2023/05/06 16:29:00;;;;;;;0.80;0.80;;;22.40;1.00;;;;;;5137602;27;20774;-86
2023/05/06 16:31:54;;;;;;;1.00;0.90;;;22.30;1.00;;;;;;5127459;27;20494;-85
2023/05/06 16:34:20;;;;;;;1.67;1.00;;;22.20;1.00;;;;;;5108338;27;20422;-85
2023/05/06 16:36:49;;;;;;;2.70;0.90;;;22.10;1.00;;;;;;5137129;27;20462;-86
2023/05/06 16:39:15;;;;;;;2.40;0.90;;;22.00;1.00;;;;;;5118756;27;20191;-85
2023/05/06 16:41:42;;;;;;;2.40;1.10;;;21.90;1.00;;;;;;5112131;28;20549;-86
2023/05/06 16:44:18;;;;;;;1.10;1.00;;;21.80;1.00;;;;;;5097184;28;20182;-86
2023/05/06 16:46:44;;;;;;;3.30;1.20;;;21.70;1.00;;;;;;5108689;27;20921;-86
2023/05/06 16:49:33;;;;;;;2.97;1.03;;;21.60;1.00;;;;;;5098052;28;20396;-85
2023/05/06 16:52:13;;;;;;;1.33;1.10;;;21.60;1.00;;;;;;5116840;27;20189;-85
2023/05/06 16:54:38;;;;;;;2.47;1.20;;;21.50;1.00;;;;;;5097239;28;20938;-83
2023/05/06 16:57:04;;;;;;;4.73;1.00;;;21.50;1.00;;;;;;5115299;28;20400;-84
2023/05/06 16:59:30;;;;;;;1.00;1.00;;;21.50;1.00;;;;;;5116248;27;20198;-87
2023/05/06 17:01:55;;;;;;;1.33;1.13;;;21.50;1.00;;;;;;5115562;28;20420;-87
2023/05/06 17:04:25;;;;;;;2.80;1.10;;;21.40;1.00;;;;;;5132494;27;20257;-87
2023/05/06 17:06:51;;;;;;;1.10;1.00;;;21.30;1.00;;;;;;5097470;28;20404;-86
2023/05/06 17:09:17;;;;;;;4.33;1.40;;;21.20;1.00;;;;;;5097489;28;20400;-86
2023/05/06 17:11:43;;;;;;;2.70;1.53;;;21.20;1.00;;;;;;5110901;27;20234;-87
2023/05/06 17:14:10;;;;;;;3.03;1.20;;;21.20;1.00;;;;;;5098671;27;20190;-86
2023/05/06 17:16:37;;;;;;;3.93;1.07;;;21.20;1.00;;;;;;5134931;27;20674;-87
2023/05/06 17:19:36;;;;;;;2.70;1.20;;;21.10;1.00;;;;;;5117822;27;20450;-87
2023/05/06 17:29:20;;;;;;;1.73;1.27;;;21.00;1.00;;;;;;5135971;27;20430;-85
2023/05/06 17:32:06;;;;;;;3.60;1.40;;;20.90;1.00;;;;;;5107812;28;20512;-84
2023/05/06 17:34:32;;;;;;;2.30;1.10;;;20.80;1.00;;;;;;5115008;27;20630;-84
2023/05/06 17:36:58;;;;;;;3.37;1.23;;;20.60;1.00;;;;;;5107871;28;20534;-85
2023/05/06 17:43:18;;;;;;;3.37;1.37;;;20.40;1.00;;;;;;5114811;28;20429;-84
2023/05/06 17:45:44;;;;;;;1.83;1.30;;;20.30;1.00;;;;;;5096803;28;20517;-84
2023/05/06 17:51:32;;;;;;;1.30;1.20;;;20.20;1.00;;;;;;5129721;27;20437;-87
2023/05/06 17:57:20;;;;;;;1.23;1.13;;;20.00;1.00;;;;;;5115075;28;20660;-89